Time;durP1;ratioP1;P1;durP2;ratioP2;P2;SDS_P1;SDS_P2;PMS_P1;PMS_P2;Temp;Humidity;BMP_temperature;BMP_pressure;BME280_temperature;BME280_humidity;BME280_pressure;Samples;Min_cycle;Max_cycle;Signal;HPM_P1;HPM_P2
2023/08/23 00:01:52;;;;;;;9.45;7.70;;;17.00;99.90;;;;;;5107666;28;20417;-76
2023/08/23 00:04:19;;;;;;;9.13;7.30;;;17.20;99.90;;;;;;5096120;28;20468;-77
2023/08/23 00:06:45;;;;;;;10.30;7.38;;;16.90;99.90;;;;;;5096491;28;20409;-77
2023/08/23 00:09:11;;;;;;;10.17;7.33;;;17.00;99.90;;;;;;5141105;27;20416;-76
2023/08/23 00:11:37;;;;;;;10.07;7.75;;;16.00;99.90;;;;;;5102690;28;20424;-76
2023/08/23 00:14:04;;;;;;;11.02;7.95;;;17.20;99.90;;;;;;5075387;28;20469;-76
2023/08/23 00:16:32;;;;;;;10.02;8.00;;;17.10;99.90;;;;;;5080113;28;20441;-76
2023/08/23 00:18:58;;;;;;;11.60;8.63;;;17.10;99.90;;;;;;5092279;28;20849;-76
2023/08/23 00:21:23;;;;;;;11.95;8.35;;;17.00;99.90;;;;;;5099420;28;20503;-77
2023/08/23 00:23:49;;;;;;;10.63;8.45;;;17.00;99.90;;;;;;5079690;28;20481;-76
2023/08/23 00:26:15;;;;;;;12.20;8.95;;;17.00;99.90;;;;;;5089782;28;20432;-77
2023/08/23 00:28:42;;;;;;;17.60;9.75;;;17.00;99.90;;;;;;5077418;28;20412;-78
2023/08/23 00:31:07;;;;;;;12.80;8.88;;;16.80;99.90;;;;;;5112635;28;20400;-78
2023/08/23 00:33:33;;;;;;;11.95;9.27;;;16.90;99.90;;;;;;5110969;28;20447;-78
2023/08/23 00:35:59;;;;;;;13.05;9.63;;;16.60;99.90;;;;;;5096642;28;20410;-78
2023/08/23 00:38:25;;;;;;;12.63;8.82;;;16.80;99.90;;;;;;5097352;28;20432;-78
2023/08/23 00:40:51;;;;;;;12.43;9.13;;;16.80;99.90;;;;;;5109106;28;20708;-78
2023/08/23 00:43:16;;;;;;;15.30;9.80;;;17.00;99.90;;;;;;5101277;28;20943;-78
2023/08/23 00:45:42;;;;;;;12.63;9.23;;;16.90;99.90;;;;;;5102817;28;20491;-78
2023/08/23 00:48:10;;;;;;;13.43;9.50;;;16.80;99.90;;;;;;5082392;28;20428;-78
2023/08/23 00:50:38;;;;;;;10.27;8.68;;;16.90;99.90;;;;;;5126213;27;20448;-78
2023/08/23 00:53:06;;;;;;;11.88;8.77;;;16.80;99.90;;;;;;5128415;27;20412;-78
2023/08/23 00:55:33;;;;;;;12.75;9.35;;;17.10;99.90;;;;;;5106860;28;20425;-77
2023/08/23 00:57:59;;;;;;;11.43;9.15;;;16.80;99.90;;;;;;5110304;27;20901;-78
2023/08/23 01:00:26;;;;;;;15.10;10.05;;;17.00;99.90;;;;;;5085164;28;20429;-76
2023/08/23 01:02:52;;;;;;;13.70;10.10;;;17.00;99.90;;;;;;5105759;28;20426;-76
2023/08/23 01:05:20;;;;;;;13.83;9.70;;;16.60;99.90;;;;;;5112649;27;20413;-76
2023/08/23 01:07:52;;;;;;;13.77;9.90;;;16.80;99.90;;;;;;5078135;28;20418;-76
2023/08/23 01:10:30;;;;;;;11.25;8.38;;;16.50;99.90;;;;;;5095819;28;20421;-76
2023/08/23 01:13:14;;;;;;;10.82;8.07;;;16.20;99.90;;;;;;5109256;28;20416;-76
2023/08/23 01:15:40;;;;;;;11.13;8.40;;;16.10;99.90;;;;;;5110319;28;20507;-76
2023/08/23 01:18:06;;;;;;;10.35;8.23;;;16.30;99.90;;;;;;5088802;28;20447;-76
2023/08/23 01:20:33;;;;;;;11.00;7.63;;;16.30;99.90;;;;;;5099928;28;20446;-75
2023/08/23 01:23:11;;;;;;;12.00;8.73;;;16.30;99.90;;;;;;5098261;28;20458;-76
2023/08/23 01:25:41;;;;;;;10.32;8.32;;;16.20;99.90;;;;;;5098984;28;20904;-76
2023/08/23 01:28:07;;;;;;;11.97;8.67;;;16.30;99.90;;;;;;5097781;28;20414;-76
2023/08/23 01:30:34;;;;;;;9.20;7.63;;;16.30;99.90;;;;;;5083831;28;20435;-76
2023/08/23 01:33:08;;;;;;;10.02;8.05;;;16.00;99.90;;;;;;5107258;28;20452;-75
2023/08/23 01:35:46;;;;;;;10.82;8.40;;;16.20;99.90;;;;;;5092693;28;20417;-75
2023/08/23 01:38:14;;;;;;;11.43;8.40;;;16.20;99.90;;;;;;5120211;27;20420;-77
2023/08/23 01:40:41;;;;;;;12.20;9.05;;;16.20;99.90;;;;;;5111846;27;20413;-76
2023/08/23 01:43:07;;;;;;;13.23;9.43;;;16.10;99.90;;;;;;5102298;28;20416;-76
2023/08/23 01:45:32;;;;;;;13.35;9.82;;;16.10;99.90;;;;;;5081631;28;20542;-75
2023/08/23 01:47:58;;;;;;;14.45;10.40;;;16.10;99.90;;;;;;5076931;28;20418;-75
2023/08/23 01:50:23;;;;;;;14.57;10.20;;;16.10;99.90;;;;;;5100485;28;20424;-76
2023/08/23 01:52:49;;;;;;;13.03;9.87;;;15.90;99.90;;;;;;5105349;28;20418;-76
2023/08/23 01:55:18;;;;;;;14.98;10.68;;;15.90;99.90;;;;;;5110201;28;20447;-76
2023/08/23 01:57:44;;;;;;;13.70;10.18;;;15.70;99.90;;;;;;5128335;27;20405;-76
2023/08/23 02:00:11;;;;;;;14.67;10.40;;;15.60;99.90;;;;;;5087234;28;20439;-76
2023/08/23 02:02:36;;;;;;;13.20;10.48;;;15.50;99.90;;;;;;5099551;28;20482;-76
2023/08/23 02:05:02;;;;;;;14.93;10.60;;;15.70;99.90;;;;;;5096378;28;20502;-76
2023/08/23 02:07:28;;;;;;;14.23;10.13;;;15.50;99.90;;;;;;5115581;27;20418;-76
2023/08/23 02:09:53;;;;;;;43.70;10.68;;;15.30;99.90;;;;;;5112294;28;20402;-76
2023/08/23 02:12:19;;;;;;;57.20;11.13;;;15.80;99.90;;;;;;5116948;27;20924;-76
2023/08/23 02:14:45;;;;;;;12.20;8.90;;;15.40;99.90;;;;;;5101823;28;20421;-76
2023/08/23 02:17:11;;;;;;;12.47;8.37;;;15.20;99.90;;;;;;5078042;28;20421;-76
2023/08/23 02:19:36;;;;;;;12.00;8.80;;;15.20;99.90;;;;;;5094251;28;20418;-76
2023/08/23 02:22:02;;;;;;;10.90;8.45;;;15.30;99.90;;;;;;5081943;28;20877;-76
2023/08/23 02:24:28;;;;;;;9.43;7.40;;;15.40;99.90;;;;;;5096260;28;20426;-77
2023/08/23 02:26:53;;;;;;;16.23;8.30;;;15.40;99.90;;;;;;5076287;28;20422;-76
2023/08/23 02:29:19;;;;;;;31.47;9.70;;;15.40;99.90;;;;;;5103050;28;20404;-77
2023/08/23 02:31:45;;;;;;;21.83;9.93;;;15.10;99.90;;;;;;5087293;28;20456;-76
2023/08/23 02:34:10;;;;;;;24.42;9.23;;;15.40;99.90;;;;;;5080387;28;21001;-76
2023/08/23 02:36:36;;;;;;;12.82;8.27;;;15.00;99.90;;;;;;5074562;28;20421;-76
2023/08/23 02:39:02;;;;;;;14.90;9.33;;;15.20;99.90;;;;;;5091474;28;20934;-75
2023/08/23 02:41:28;;;;;;;10.50;8.15;;;15.30;99.90;;;;;;5136973;27;20402;-75
2023/08/23 02:43:54;;;;;;;19.63;9.63;;;15.10;99.90;;;;;;5071782;28;20428;-75
2023/08/23 02:46:19;;;;;;;26.73;9.13;;;15.10;99.90;;;;;;5111488;28;20413;-75
2023/08/23 02:48:45;;;;;;;68.45;11.07;;;15.10;99.90;;;;;;5117285;27;20420;-75
2023/08/23 02:51:11;;;;;;;142.30;14.43;;;14.80;99.90;;;;;;5110144;28;20451;-76
2023/08/23 02:53:36;;;;;;;49.80;10.80;;;15.20;99.90;;;;;;5084222;28;20833;-76
2023/08/23 02:56:02;;;;;;;109.33;13.10;;;14.70;99.90;;;;;;5094749;28;20754;-76
2023/08/23 02:58:28;;;;;;;31.42;9.95;;;15.00;99.90;;;;;;5097718;28;20422;-76
2023/08/23 03:00:54;;;;;;;38.05;9.98;;;14.70;99.90;;;;;;5114067;27;20464;-76
2023/08/23 03:03:20;;;;;;;36.90;9.15;;;15.10;99.90;;;;;;5102331;28;20404;-76
2023/08/23 03:05:53;;;;;;;70.15;12.02;;;14.90;99.90;;;;;;5098685;28;20415;-76
2023/08/23 03:08:19;;;;;;;117.00;12.53;;;14.70;99.90;;;;;;5104968;28;20520;-75
2023/08/23 03:10:46;;;;;;;58.23;11.20;;;14.60;99.90;;;;;;5122016;27;20771;-76
2023/08/23 03:13:11;;;;;;;22.38;8.98;;;14.60;99.90;;;;;;5111913;28;20411;-76
2023/08/23 03:15:37;;;;;;;98.72;12.98;;;14.70;99.90;;;;;;5094137;28;20430;-76
2023/08/23 03:18:03;;;;;;;41.63;10.35;;;14.80;99.90;;;;;;5094820;28;20761;-77
2023/08/23 03:20:29;;;;;;;62.63;13.10;;;14.90;99.90;;;;;;5076565;28;20456;-77
2023/08/23 03:22:54;;;;;;;34.90;10.27;;;14.80;99.90;;;;;;5088852;28;20428;-78
2023/08/23 03:25:20;;;;;;;52.33;12.07;;;14.90;99.90;;;;;;5115099;27;20412;-78
2023/08/23 03:27:52;;;;;;;31.92;10.13;;;14.80;99.90;;;;;;5087871;28;20500;-77
2023/08/23 03:30:18;;;;;;;54.50;11.85;;;15.00;99.90;;;;;;5095388;28;20495;-77
2023/08/23 03:32:44;;;;;;;31.27;10.13;;;14.90;99.90;;;;;;5130110;27;20413;-78
2023/08/23 03:35:10;;;;;;;27.55;10.48;;;14.90;99.90;;;;;;5129618;27;20823;-78
2023/08/23 03:37:35;;;;;;;59.17;12.15;;;14.70;99.90;;;;;;5096157;28;20473;-78
2023/08/23 03:40:01;;;;;;;20.40;10.63;;;14.50;99.90;;;;;;5108879;28;20448;-78
2023/08/23 03:42:27;;;;;;;17.00;10.93;;;14.40;99.90;;;;;;5084657;28;20414;-78
2023/08/23 03:44:53;;;;;;;21.07;11.03;;;14.70;99.90;;;;;;5077454;28;20464;-78
2023/08/23 03:47:19;;;;;;;15.23;10.27;;;14.60;99.90;;;;;;5095512;28;20410;-78
2023/08/23 03:49:44;;;;;;;39.67;12.10;;;14.80;99.90;;;;;;5097673;28;20889;-77
2023/08/23 03:52:10;;;;;;;47.07;14.03;;;14.90;99.90;;;;;;5106873;28;20799;-77
2023/08/23 03:54:36;;;;;;;22.88;12.05;;;14.80;99.90;;;;;;5093753;28;20416;-77
2023/08/23 03:57:02;;;;;;;24.60;12.02;;;14.60;99.90;;;;;;5103661;28;20424;-77
2023/08/23 03:59:27;;;;;;;33.97;13.13;;;15.40;99.90;;;;;;5096684;28;20447;-78
2023/08/23 04:01:53;;;;;;;17.93;11.60;;;14.80;99.90;;;;;;5113516;28;20412;-78
2023/08/23 04:04:19;;;;;;;15.33;10.83;;;14.80;99.90;;;;;;5114529;28;20503;-78
2023/08/23 04:06:44;;;;;;;17.10;10.77;;;14.90;99.90;;;;;;5140089;27;20416;-78
2023/08/23 04:09:10;;;;;;;104.40;15.80;;;15.00;99.90;;;;;;5112826;28;20533;-77
2023/08/23 04:11:36;;;;;;;23.77;11.85;;;14.90;99.90;;;;;;5120330;27;20428;-78
2023/08/23 04:14:02;;;;;;;90.75;16.17;;;14.90;99.90;;;;;;5077164;28;20418;-78
2023/08/23 04:16:28;;;;;;;24.63;13.18;;;14.80;99.90;;;;;;5094071;28;20421;-78
2023/08/23 04:18:54;;;;;;;21.75;12.60;;;14.70;99.90;;;;;;5107626;28;21010;-76
2023/08/23 04:21:20;;;;;;;17.95;12.15;;;14.80;99.90;;;;;;5093616;28;20409;-78
2023/08/23 04:23:46;;;;;;;22.65;13.10;;;14.80;99.90;;;;;;5092130;28;20410;-77
2023/08/23 04:26:11;;;;;;;20.58;13.10;;;15.00;99.90;;;;;;5106357;28;21042;-77
2023/08/23 04:28:37;;;;;;;25.17;13.02;;;15.10;99.90;;;;;;5094511;28;20469;-78
2023/08/23 04:31:03;;;;;;;54.05;16.13;;;14.90;99.90;;;;;;5092201;28;20446;-78
2023/08/23 04:33:29;;;;;;;64.30;17.40;;;15.10;99.90;;;;;;5082114;28;20495;-78
2023/08/23 04:35:58;;;;;;;38.88;15.80;;;14.70;99.90;;;;;;5100536;28;20413;-78
2023/08/23 04:38:23;;;;;;;22.73;14.70;;;14.60;99.90;;;;;;5086857;28;20416;-78
2023/08/23 04:41:01;;;;;;;61.00;18.53;;;14.60;99.90;;;;;;5102690;28;20429;-78
2023/08/23 04:43:27;;;;;;;72.03;20.37;;;14.70;99.90;;;;;;5109804;27;20414;-78
2023/08/23 04:45:57;;;;;;;87.70;19.70;;;14.70;99.90;;;;;;5075397;28;20440;-78
2023/08/23 04:48:23;;;;;;;83.10;20.20;;;14.40;99.90;;;;;;5121047;27;20550;-78
2023/08/23 04:50:53;;;;;;;46.70;17.05;;;14.60;99.90;;;;;;5111455;27;20433;-78
2023/08/23 04:53:19;;;;;;;46.95;17.27;;;14.50;99.90;;;;;;5133432;27;20421;-78
2023/08/23 04:55:45;;;;;;;32.10;17.88;;;14.30;99.90;;;;;;5092116;28;20402;-78
2023/08/23 04:58:11;;;;;;;26.25;17.10;;;14.60;99.90;;;;;;5111067;28;20423;-75
2023/08/23 05:00:37;;;;;;;26.80;17.13;;;14.30;99.90;;;;;;5086633;28;20422;-76
2023/08/23 05:03:04;;;;;;;37.43;18.93;;;14.60;99.90;;;;;;5097046;28;20469;-76
2023/08/23 05:05:30;;;;;;;32.05;18.10;;;14.50;99.90;;;;;;5111273;28;20487;-76
2023/08/23 05:07:55;;;;;;;33.70;18.73;;;14.40;99.90;;;;;;5125997;27;20477;-76
2023/08/23 05:10:21;;;;;;;34.20;18.93;;;14.30;99.90;;;;;;5091781;28;20997;-76
2023/08/23 05:12:47;;;;;;;28.80;18.13;;;14.40;99.90;;;;;;5104002;28;20418;-77
2023/08/23 05:15:13;;;;;;;25.67;17.53;;;14.40;99.90;;;;;;5084658;28;20414;-77
2023/08/23 05:17:38;;;;;;;28.48;18.27;;;14.60;99.90;;;;;;5092481;28;20483;-76
2023/08/23 05:20:05;;;;;;;29.67;19.30;;;14.70;99.90;;;;;;5097641;28;20613;-77
2023/08/23 05:22:31;;;;;;;26.63;18.77;;;14.60;99.90;;;;;;5095535;28;20421;-76
2023/08/23 05:24:57;;;;;;;26.45;17.95;;;14.40;99.90;;;;;;5107071;28;20416;-75
2023/08/23 05:27:22;;;;;;;24.43;17.10;;;14.60;99.90;;;;;;5110889;28;20418;-75
2023/08/23 05:29:49;;;;;;;30.67;19.00;;;14.70;99.90;;;;;;5098933;28;20418;-75
2023/08/23 05:32:15;;;;;;;32.50;20.33;;;15.00;99.90;;;;;;5109796;28;20412;-76
2023/08/23 05:34:41;;;;;;;26.40;18.50;;;14.70;99.90;;;;;;5112567;28;20461;-75
2023/08/23 05:37:07;;;;;;;31.40;21.02;;;;;;;;;;5104913;28;20492;-76
2023/08/23 05:39:33;;;;;;;32.72;20.65;;;14.60;99.90;;;;;;5078232;28;20945;-76
2023/08/23 05:41:59;;;;;;;28.25;19.52;;;14.50;99.90;;;;;;5109441;28;20424;-75
2023/08/23 05:44:24;;;;;;;29.95;19.88;;;14.60;99.90;;;;;;5131363;27;20413;-76
2023/08/23 05:46:50;;;;;;;30.05;20.92;;;14.80;99.90;;;;;;5104344;28;20922;-75
2023/08/23 05:49:16;;;;;;;30.05;20.13;;;14.80;99.90;;;;;;5100383;28;20433;-75
2023/08/23 05:51:42;;;;;;;31.05;21.23;;;14.70;99.90;;;;;;5108796;28;20419;-75
2023/08/23 05:54:08;;;;;;;28.98;19.45;;;14.90;99.90;;;;;;5097247;28;20469;-75
2023/08/23 05:56:34;;;;;;;25.40;18.77;;;14.90;99.90;;;;;;5107846;28;20416;-76
2023/08/23 05:58:59;;;;;;;28.27;19.02;;;14.90;99.90;;;;;;5138436;27;20495;-76
2023/08/23 06:01:25;;;;;;;22.87;17.27;;;15.10;99.90;;;;;;5081981;28;20873;-75
2023/08/23 06:03:51;;;;;;;27.43;18.80;;;15.00;99.90;;;;;;5104995;28;20450;-76
2023/08/23 06:06:17;;;;;;;25.20;17.60;;;15.20;99.90;;;;;;5101878;28;20902;-76
2023/08/23 06:08:42;;;;;;;22.33;16.75;;;15.10;99.90;;;;;;5101274;28;20895;-75
2023/08/23 06:11:08;;;;;;;23.33;17.77;;;15.50;99.90;;;;;;5069477;28;20536;-76
2023/08/23 06:13:34;;;;;;;23.95;17.90;;;15.80;99.90;;;;;;5112105;28;20443;-77
2023/08/23 06:15:59;;;;;;;22.60;17.87;;;15.70;99.90;;;;;;5102247;28;20954;-76
2023/08/23 06:18:26;;;;;;;24.20;18.80;;;15.80;99.90;;;;;;5104979;28;20509;-78
2023/08/23 06:20:51;;;;;;;25.08;18.83;;;15.70;99.90;;;;;;5113816;28;20404;-76
2023/08/23 06:23:17;;;;;;;24.70;18.43;;;15.70;99.90;;;;;;5131573;27;20421;-79
2023/08/23 06:25:43;;;;;;;24.88;17.73;;;16.00;99.90;;;;;;5130478;27;20416;-79
2023/08/23 06:28:11;;;;;;;23.92;18.60;;;15.90;99.90;;;;;;5098483;28;20416;-80
2023/08/23 06:30:38;;;;;;;23.08;17.83;;;16.50;99.90;;;;;;5101872;28;20425;-78
2023/08/23 06:33:05;;;;;;;22.92;17.45;;;16.30;99.90;;;;;;5086499;28;20428;-79
2023/08/23 06:35:31;;;;;;;21.97;18.10;;;16.60;99.90;;;;;;5078638;28;20471;-79
2023/08/23 06:37:57;;;;;;;21.92;17.38;;;16.80;99.90;;;;;;5116685;27;20513;-79
2023/08/23 06:40:24;;;;;;;21.52;17.92;;;16.60;99.90;;;;;;5092529;28;20491;-78
2023/08/23 06:42:50;;;;;;;22.92;17.00;;;16.80;99.90;;;;;;5108000;28;20420;-79
2023/08/23 06:45:16;;;;;;;22.03;17.10;;;17.00;99.90;;;;;;5081044;28;20412;-77
2023/08/23 06:47:42;;;;;;;22.33;17.03;;;17.50;99.90;;;;;;5107112;28;20412;-77
2023/08/23 06:50:08;;;;;;;22.70;16.92;;;17.30;99.90;;;;;;5077511;28;20445;-76
2023/08/23 06:52:33;;;;;;;19.47;15.93;;;17.80;99.90;;;;;;5100226;28;20433;-75
2023/08/23 06:54:59;;;;;;;19.83;15.47;;;16.50;99.90;;;;;;5086479;28;20897;-75
2023/08/23 06:57:28;;;;;;;19.58;15.77;;;17.90;99.90;;;;;;5106177;28;20896;-79
2023/08/23 06:59:56;;;;;;;18.77;15.10;;;17.90;99.90;;;;;;5096084;28;20480;-79
2023/08/23 07:02:22;;;;;;;19.35;15.05;;;18.10;99.90;;;;;;5098638;28;20413;-80
2023/08/23 07:04:49;;;;;;;16.73;14.20;;;18.30;99.90;;;;;;5104409;28;20444;-80
2023/08/23 07:07:16;;;;;;;18.52;13.95;;;18.40;99.90;;;;;;5129658;27;20424;-80
2023/08/23 07:09:42;;;;;;;18.50;13.63;;;18.70;99.90;;;;;;5109094;28;20411;-80
2023/08/23 07:12:07;;;;;;;13.98;12.02;;;18.80;99.90;;;;;;5106968;28;20408;-79
2023/08/23 07:14:33;;;;;;;15.00;11.73;;;19.10;99.90;;;;;;5088020;28;20415;-79
2023/08/23 07:16:59;;;;;;;15.83;11.60;;;19.40;99.90;;;;;;5108377;28;20447;-79
2023/08/23 07:19:25;;;;;;;14.20;10.77;;;19.70;99.90;;;;;;5091714;28;20432;-77
2023/08/23 07:21:50;;;;;;;15.70;11.88;;;19.60;99.90;;;;;;5110631;27;20419;-77
2023/08/23 07:24:16;;;;;;;13.95;10.25;;;19.70;99.90;;;;;;5104701;28;20419;-78
2023/08/23 07:26:42;;;;;;;14.23;9.82;;;19.70;99.90;;;;;;5105904;28;20855;-78
2023/08/23 07:29:09;;;;;;;15.43;9.43;;;20.10;99.90;;;;;;5104628;28;20420;-79
2023/08/23 07:31:34;;;;;;;12.30;9.13;;;20.30;99.90;;;;;;5108554;27;21739;-77
2023/08/23 07:34:00;;;;;;;12.20;9.18;;;20.40;99.90;;;;;;5105317;28;20410;-76
2023/08/23 07:36:26;;;;;;;13.60;9.20;;;20.30;99.90;;;;;;5087120;28;20424;-76
2023/08/23 07:38:52;;;;;;;12.45;8.95;;;20.50;99.90;;;;;;5086521;28;20441;-80
2023/08/23 07:41:17;;;;;;;13.50;9.07;;;19.90;99.90;;;;;;5103516;28;20820;-80
2023/08/23 07:43:43;;;;;;;10.77;9.05;;;20.70;99.90;;;;;;5111093;27;20418;-83
2023/08/23 07:46:09;;;;;;;13.20;8.70;;;20.90;99.90;;;;;;5095626;28;20416;-82
2023/08/23 07:48:34;;;;;;;16.13;9.35;;;20.70;99.90;;;;;;5102371;27;20531;-82
2023/08/23 07:51:01;;;;;;;14.05;8.90;;;21.10;99.90;;;;;;5102285;28;20418;-82
2023/08/23 07:53:28;;;;;;;13.17;9.57;;;20.80;99.90;;;;;;5073040;28;20469;-79
2023/08/23 07:55:54;;;;;;;13.77;9.55;;;21.10;99.90;;;;;;5112889;28;20447;-78
2023/08/23 07:58:20;;;;;;;12.10;9.40;;;20.70;99.90;;;;;;5103098;28;20472;-78
2023/08/23 08:00:46;;;;;;;13.23;9.70;;;20.60;99.90;;;;;;5103227;28;20416;-77
2023/08/23 08:03:11;;;;;;;12.60;9.80;;;20.80;99.90;;;;;;5095412;28;20416;-77
2023/08/23 08:05:37;;;;;;;12.32;9.60;;;20.80;99.90;;;;;;5106809;28;20798;-78
2023/08/23 08:08:05;;;;;;;14.65;10.60;;;21.10;99.90;;;;;;5096583;28;20410;-77
2023/08/23 08:10:31;;;;;;;15.15;10.82;;;21.30;99.90;;;;;;5082928;28;20554;-78
2023/08/23 08:12:58;;;;;;;13.40;10.23;;;21.00;99.90;;;;;;5102843;28;20552;-78
2023/08/23 08:15:25;;;;;;;12.82;10.20;;;21.10;99.90;;;;;;5104340;28;20507;-75
2023/08/23 08:17:51;;;;;;;14.05;10.30;;;21.20;99.90;;;;;;5091798;28;20419;-75
2023/08/23 08:20:18;;;;;;;15.75;11.05;;;21.00;99.90;;;;;;5098245;28;20842;-77
2023/08/23 08:22:44;;;;;;;13.97;9.77;;;21.00;99.90;;;;;;5110767;28;20493;-77
2023/08/23 08:25:10;;;;;;;15.50;10.45;;;21.20;99.90;;;;;;5104976;28;21946;-76
2023/08/23 08:27:36;;;;;;;14.33;11.37;;;21.60;99.90;;;;;;5093151;28;20503;-75
2023/08/23 08:30:02;;;;;;;15.17;10.73;;;21.90;99.90;;;;;;5094718;28;20502;-82
2023/08/23 08:32:28;;;;;;;14.63;11.70;;;22.00;99.90;;;;;;5097893;28;20426;-79
2023/08/23 08:34:55;;;;;;;15.93;11.70;;;21.70;99.90;;;;;;5098263;28;20457;-80
2023/08/23 08:37:22;;;;;;;16.10;11.85;;;21.80;99.90;;;;;;5112165;27;20433;-79
2023/08/23 08:39:49;;;;;;;14.80;11.63;;;21.70;99.90;;;;;;5086275;28;20420;-79
2023/08/23 08:42:15;;;;;;;15.35;11.50;;;21.80;99.90;;;;;;5089873;28;20510;-79
2023/08/23 08:44:42;;;;;;;18.00;11.52;;;22.00;99.90;;;;;;5085781;28;20406;-77
2023/08/23 08:47:08;;;;;;;18.80;11.45;;;22.10;99.90;;;;;;5091653;28;20461;-76
2023/08/23 08:49:33;;;;;;;15.00;10.83;;;22.20;99.90;;;;;;5097820;28;20422;-76
2023/08/23 08:52:03;;;;;;;11.30;9.40;;;22.50;99.90;;;;;;5104308;27;20415;-75
2023/08/23 08:54:30;;;;;;;13.40;10.48;;;22.90;99.90;;;;;;5095322;28;20907;-75
2023/08/23 08:56:57;;;;;;;13.27;10.38;;;22.90;99.90;;;;;;5076980;28;20416;-76
2023/08/23 08:59:23;;;;;;;14.10;10.60;;;22.80;99.90;;;;;;5093186;28;20459;-75
2023/08/23 09:01:50;;;;;;;13.93;11.27;;;22.70;99.90;;;;;;5092917;28;20500;-75
2023/08/23 09:04:16;;;;;;;14.63;10.93;;;22.80;99.90;;;;;;5091908;28;20508;-74
2023/08/23 09:06:45;;;;;;;13.37;10.77;;;23.10;99.90;;;;;;5091762;28;20419;-75
2023/08/23 09:09:12;;;;;;;16.20;11.30;;;23.00;99.90;;;;;;5099609;28;20754;-76
2023/08/23 09:11:37;;;;;;;14.68;10.50;;;23.10;99.90;;;;;;5077631;28;20421;-76
2023/08/23 09:14:25;;;;;;;14.63;11.50;;;23.40;99.90;;;;;;5096511;28;20440;-76
2023/08/23 09:16:50;;;;;;;16.70;12.30;;;23.30;99.90;;;;;;5105748;28;20429;-75
2023/08/23 09:19:16;;;;;;;16.55;12.85;;;23.20;99.90;;;;;;5104826;28;20429;-76
2023/08/23 09:21:45;;;;;;;14.93;11.67;;;23.10;99.90;;;;;;5110441;28;20837;-76
2023/08/23 09:24:12;;;;;;;18.60;12.93;;;23.20;99.90;;;;;;5101198;28;20426;-77
2023/08/23 09:26:39;;;;;;;18.40;12.90;;;23.40;99.90;;;;;;5140088;27;20408;-77
2023/08/23 09:29:05;;;;;;;18.55;12.75;;;23.00;99.90;;;;;;5097817;28;20456;-75
2023/08/23 09:31:31;;;;;;;17.30;12.77;;;23.10;99.90;;;;;;5102215;28;20445;-74
2023/08/23 09:33:58;;;;;;;17.83;13.50;;;23.40;99.90;;;;;;5104401;28;20408;-74
2023/08/23 09:36:41;;;;;;;14.77;11.77;;;23.30;99.90;;;;;;5108327;27;20420;-75
2023/08/23 09:39:11;;;;;;;14.35;10.82;;;23.10;99.90;;;;;;5101117;28;20473;-75
2023/08/23 09:41:39;;;;;;;14.40;11.45;;;23.30;99.90;;;;;;5071682;28;20429;-75
2023/08/23 09:44:04;;;;;;;14.27;11.27;;;23.50;99.90;;;;;;5100709;28;20499;-74
2023/08/23 09:46:36;;;;;;;14.25;10.35;;;23.40;99.90;;;;;;5076433;28;20584;-75
2023/08/23 09:49:07;;;;;;;13.23;9.77;;;23.90;99.90;;;;;;5098375;28;20948;-75
2023/08/23 09:51:36;;;;;;;13.98;9.30;;;24.00;99.90;;;;;;5089069;28;20424;-75
2023/08/23 09:54:13;;;;;;;12.70;8.23;;;24.70;99.90;;;;;;5091478;28;20421;-75
2023/08/23 09:56:42;;;;;;;11.83;8.43;;;25.10;99.90;;;;;;5101155;28;20416;-76
2023/08/23 09:59:09;;;;;;;10.93;7.88;;;25.00;99.90;;;;;;5076108;28;20418;-75
2023/08/23 10:01:36;;;;;;;12.75;8.30;;;25.10;99.90;;;;;;5112431;27;20442;-75
2023/08/23 10:04:03;;;;;;;13.25;8.85;;;25.40;99.90;;;;;;5098033;28;20507;-75
2023/08/23 10:06:33;;;;;;;12.60;8.23;;;25.50;99.90;;;;;;5088446;28;20906;-75
2023/08/23 10:08:59;;;;;;;10.75;7.50;;;25.60;99.90;;;;;;5133101;27;20448;-76
2023/08/23 10:11:27;;;;;;;11.80;7.93;;;25.80;99.90;;;;;;5083833;28;20422;-75
2023/08/23 10:13:57;;;;;;;10.48;7.13;;;25.50;99.90;;;;;;5124595;27;20439;-75
2023/08/23 10:16:25;;;;;;;12.37;9.67;;;25.90;99.90;;;;;;5096834;28;20429;-75
2023/08/23 10:18:52;;;;;;;12.38;9.10;;;25.90;99.90;;;;;;5097935;28;20417;-75
2023/08/23 10:21:18;;;;;;;10.98;9.05;;;25.80;99.90;;;;;;5079107;28;20842;-75
2023/08/23 10:23:44;;;;;;;11.02;8.55;;;25.80;99.90;;;;;;5111020;28;20416;-75
2023/08/23 10:26:21;;;;;;;12.23;9.13;;;25.80;99.90;;;;;;5113857;28;20550;-76
2023/08/23 10:28:55;;;;;;;10.98;9.10;;;25.50;99.90;;;;;;5078880;28;20420;-76
2023/08/23 10:31:25;;;;;;;12.77;9.90;;;25.00;99.90;;;;;;5097613;28;20437;-75
2023/08/23 10:33:58;;;;;;;12.40;9.65;;;24.70;99.90;;;;;;5081370;28;20411;-76
2023/08/23 10:36:29;;;;;;;12.75;9.10;;;24.70;99.90;;;;;;5115067;27;20514;-76
2023/08/23 10:38:57;;;;;;;13.18;8.48;;;24.50;99.90;;;;;;5114375;28;20416;-75
2023/08/23 10:41:24;;;;;;;12.57;7.97;;;24.40;99.90;;;;;;5114371;28;20481;-76
2023/08/23 10:43:50;;;;;;;16.30;8.02;;;24.40;99.90;;;;;;5095313;28;20429;-77
2023/08/23 10:46:22;;;;;;;9.85;7.63;;;24.50;99.90;;;;;;5078353;28;20746;-76
2023/08/23 10:48:48;;;;;;;11.35;6.88;;;24.50;99.90;;;;;;5133280;27;20418;-76
2023/08/23 10:51:15;;;;;;;10.82;6.45;;;24.50;99.90;;;;;;5096500;28;20830;-75
2023/08/23 10:53:42;;;;;;;12.80;6.50;;;24.60;99.90;;;;;;5114331;28;20419;-76
2023/08/23 10:56:08;;;;;;;9.60;5.22;;;24.60;99.90;;;;;;5114369;28;20397;-75
2023/08/23 10:58:36;;;;;;;8.85;5.10;;;24.80;99.90;;;;;;5082675;28;21234;-75
2023/08/23 11:01:02;;;;;;;9.65;5.20;;;24.60;99.90;;;;;;5108718;28;20498;-75
2023/08/23 11:03:28;;;;;;;10.13;5.97;;;25.00;99.90;;;;;;5093175;28;20496;-75
2023/08/23 11:05:55;;;;;;;25.60;5.78;;;24.90;99.90;;;;;;5113414;28;20449;-75
2023/08/23 11:08:23;;;;;;;9.30;6.03;;;25.30;99.90;;;;;;5106531;28;20422;-74
2023/08/23 11:10:50;;;;;;;14.07;6.10;;;25.50;99.90;;;;;;5089943;28;20404;-74
2023/08/23 11:13:16;;;;;;;11.82;5.88;;;25.80;99.90;;;;;;5092506;28;20520;-79
2023/08/23 11:15:45;;;;;;;10.23;5.60;;;25.90;99.90;;;;;;5094377;28;20892;-79
2023/08/23 11:18:12;;;;;;;9.77;5.93;;;25.70;99.90;;;;;;5111013;28;20416;-85
2023/08/23 11:20:38;;;;;;;14.13;5.97;;;25.40;99.90;;;;;;5140054;27;20934;-77
2023/08/23 11:23:04;;;;;;;9.50;5.67;;;25.40;99.90;;;;;;5078435;28;20426;-78
2023/08/23 11:25:30;;;;;;;9.48;5.40;;;25.50;99.90;;;;;;5098994;28;20456;-78
2023/08/23 11:27:57;;;;;;;9.93;5.47;;;25.60;99.90;;;;;;5093983;28;20426;-78
2023/08/23 11:30:22;;;;;;;9.07;4.77;;;25.50;99.90;;;;;;5101939;28;20506;-81
2023/08/23 11:32:48;;;;;;;10.18;4.57;;;25.40;99.90;;;;;;5077811;28;20406;-76
2023/08/23 11:35:16;;;;;;;8.65;4.85;;;25.50;99.90;;;;;;5068507;28;20493;-77
2023/08/23 11:37:42;;;;;;;9.02;4.00;;;25.50;99.90;;;;;;5108154;28;20420;-78
2023/08/23 11:40:10;;;;;;;7.87;3.80;;;25.50;99.90;;;;;;5091631;28;20427;-76
2023/08/23 11:42:37;;;;;;;10.43;4.78;;;25.90;99.90;;;;;;5113884;27;20430;-77
2023/08/23 11:45:06;;;;;;;7.93;3.95;;;26.00;99.90;;;;;;5103998;27;20414;-76
2023/08/23 11:47:35;;;;;;;8.68;4.03;;;26.40;99.90;;;;;;5104528;28;20966;-76
2023/08/23 11:50:01;;;;;;;8.35;3.75;;;26.30;99.90;;;;;;5115938;27;20556;-76
2023/08/23 11:52:30;;;;;;;7.17;3.40;;;26.40;99.90;;;;;;5126378;27;20417;-76
2023/08/23 11:54:57;;;;;;;6.57;3.20;;;26.20;99.90;;;;;;5094411;27;20415;-76
2023/08/23 11:57:23;;;;;;;7.60;3.42;;;26.60;99.90;;;;;;5112340;27;20437;-76
2023/08/23 11:59:49;;;;;;;4.87;2.70;;;26.70;99.90;;;;;;5092301;28;20763;-76
2023/08/23 12:02:14;;;;;;;6.77;2.90;;;26.40;99.90;;;;;;5112633;27;20447;-76
2023/08/23 12:04:44;;;;;;;5.32;2.90;;;26.50;99.90;;;;;;5117352;27;20427;-76
2023/08/23 12:07:10;;;;;;;7.32;2.80;;;26.70;99.90;;;;;;5097246;28;20485;-74
2023/08/23 12:09:36;;;;;;;5.80;2.30;;;26.80;99.90;;;;;;5095684;28;20484;-76
2023/08/23 12:12:03;;;;;;;4.07;2.00;;;27.10;99.90;;;;;;5083924;28;20424;-77
2023/08/23 12:14:29;;;;;;;7.63;2.10;;;27.40;99.90;;;;;;5102164;28;20890;-76
2023/08/23 12:16:55;;;;;;;4.07;2.00;;;27.30;99.90;;;;;;5101035;28;20461;-75
2023/08/23 12:19:21;;;;;;;6.15;2.45;;;27.20;99.90;;;;;;5097428;28;20417;-75
2023/08/23 12:21:49;;;;;;;4.80;2.20;;;27.20;99.90;;;;;;5124997;27;20408;-78
2023/08/23 12:24:15;;;;;;;7.05;2.22;;;27.40;99.90;;;;;;5106185;28;20445;-77
2023/08/23 12:26:41;;;;;;;5.50;2.30;;;27.10;99.90;;;;;;5090780;28;20422;-77
2023/08/23 12:29:06;;;;;;;4.37;2.20;;;26.70;99.90;;;;;;5085065;28;20507;-77
2023/08/23 12:31:32;;;;;;;6.78;2.13;;;26.80;99.90;;;;;;5101080;28;21071;-77